sensor_id;sensor_type;location;lat;lon;timestamp;P1;durP1;ratioP1;P2;durP2;ratioP2
23608;SDS011;11982;50.810;4.442;2023-03-01T00:02:02;27.98;;;15.32;;
23608;SDS011;11982;50.810;4.442;2023-03-01T00:04:29;28.40;;;16.70;;
23608;SDS011;11982;50.810;4.442;2023-03-01T00:06:55;28.13;;;16.48;;
23608;SDS011;11982;50.810;4.442;2023-03-01T00:09:21;26.92;;;15.75;;
23608;SDS011;11982;50.810;4.442;2023-03-01T00:11:47;29.33;;;17.27;;
23608;SDS011;11982;50.810;4.442;2023-03-01T00:14:13;30.73;;;16.38;;
23608;SDS011;11982;50.810;4.442;2023-03-01T00:16:41;30.27;;;15.85;;
23608;SDS011;11982;50.810;4.442;2023-03-01T00:19:09;28.92;;;16.55;;
23608;SDS011;11982;50.810;4.442;2023-03-01T00:21:41;29.00;;;16.33;;
23608;SDS011;11982;50.810;4.442;2023-03-01T00:24:07;28.83;;;17.02;;
23608;SDS011;11982;50.810;4.442;2023-03-01T00:26:34;28.98;;;16.73;;
23608;SDS011;11982;50.810;4.442;2023-03-01T00:29:00;30.83;;;16.05;;
23608;SDS011;11982;50.810;4.442;2023-03-01T00:31:27;29.63;;;16.45;;
23608;SDS011;11982;50.810;4.442;2023-03-01T00:33:55;30.15;;;16.65;;
23608;SDS011;11982;50.810;4.442;2023-03-01T00:36:23;28.30;;;17.05;;
23608;SDS011;11982;50.810;4.442;2023-03-01T00:38:50;28.50;;;16.27;;
23608;SDS011;11982;50.810;4.442;2023-03-01T00:41:16;26.42;;;16.02;;
23608;SDS011;11982;50.810;4.442;2023-03-01T00:43:44;32.10;;;16.75;;
23608;SDS011;11982;50.810;4.442;2023-03-01T00:46:11;31.13;;;16.63;;
23608;SDS011;11982;50.810;4.442;2023-03-01T00:48:38;28.70;;;16.38;;
23608;SDS011;11982;50.810;4.442;2023-03-01T00:51:05;27.00;;;17.13;;
23608;SDS011;11982;50.810;4.442;2023-03-01T00:53:33;26.88;;;15.73;;
23608;SDS011;11982;50.810;4.442;2023-03-01T00:55:59;29.08;;;17.15;;
23608;SDS011;11982;50.810;4.442;2023-03-01T00:58:25;31.42;;;17.23;;
23608;SDS011;11982;50.810;4.442;2023-03-01T01:00:51;29.98;;;16.58;;
23608;SDS011;11982;50.810;4.442;2023-03-01T01:03:20;28.95;;;17.23;;
23608;SDS011;11982;50.810;4.442;2023-03-01T01:05:46;28.95;;;16.92;;
23608;SDS011;11982;50.810;4.442;2023-03-01T01:08:11;28.00;;;16.25;;
23608;SDS011;11982;50.810;4.442;2023-03-01T01:10:37;35.63;;;16.75;;
23608;SDS011;11982;50.810;4.442;2023-03-01T01:13:03;30.95;;;17.15;;
23608;SDS011;11982;50.810;4.442;2023-03-01T01:15:33;32.67;;;18.25;;
23608;SDS011;11982;50.810;4.442;2023-03-01T01:17:59;29.35;;;16.50;;
23608;SDS011;11982;50.810;4.442;2023-03-01T01:20:25;32.42;;;16.98;;
23608;SDS011;11982;50.810;4.442;2023-03-01T01:22:51;29.27;;;17.20;;
23608;SDS011;11982;50.810;4.442;2023-03-01T01:25:17;28.50;;;17.13;;
23608;SDS011;11982;50.810;4.442;2023-03-01T01:27:43;29.42;;;17.20;;
23608;SDS011;11982;50.810;4.442;2023-03-01T01:30:09;41.03;;;17.98;;
23608;SDS011;11982;50.810;4.442;2023-03-01T01:32:35;31.65;;;17.42;;
23608;SDS011;11982;50.810;4.442;2023-03-01T01:35:01;33.60;;;16.98;;
23608;SDS011;11982;50.810;4.442;2023-03-01T01:37:27;33.53;;;17.25;;
23608;SDS011;11982;50.810;4.442;2023-03-01T01:39:59;30.08;;;17.50;;
23608;SDS011;11982;50.810;4.442;2023-03-01T01:42:25;31.70;;;17.75;;
23608;SDS011;11982;50.810;4.442;2023-03-01T01:47:52;33.05;;;17.77;;
23608;SDS011;11982;50.810;4.442;2023-03-01T01:50:22;32.10;;;17.75;;
23608;SDS011;11982;50.810;4.442;2023-03-01T01:52:48;31.70;;;18.23;;
23608;SDS011;11982;50.810;4.442;2023-03-01T01:55:20;34.78;;;18.55;;
23608;SDS011;11982;50.810;4.442;2023-03-01T01:57:53;30.10;;;16.92;;
23608;SDS011;11982;50.810;4.442;2023-03-01T02:00:24;34.03;;;18.23;;
23608;SDS011;11982;50.810;4.442;2023-03-01T02:02:53;33.50;;;17.88;;
23608;SDS011;11982;50.810;4.442;2023-03-01T02:07:48;35.80;;;17.67;;
23608;SDS011;11982;50.810;4.442;2023-03-01T02:10:14;29.20;;;16.25;;
23608;SDS011;11982;50.810;4.442;2023-03-01T02:12:40;27.55;;;17.20;;
23608;SDS011;11982;50.810;4.442;2023-03-01T02:15:07;36.85;;;18.10;;
23608;SDS011;11982;50.810;4.442;2023-03-01T02:17:33;27.52;;;15.98;;
23608;SDS011;11982;50.810;4.442;2023-03-01T02:22:44;33.90;;;17.88;;
23608;SDS011;11982;50.810;4.442;2023-03-01T02:25:23;30.05;;;16.67;;
23608;SDS011;11982;50.810;4.442;2023-03-01T02:27:59;29.50;;;16.17;;
23608;SDS011;11982;50.810;4.442;2023-03-01T02:30:33;29.10;;;16.33;;
23608;SDS011;11982;50.810;4.442;2023-03-01T02:32:59;28.90;;;15.98;;
23608;SDS011;11982;50.810;4.442;2023-03-01T02:35:35;28.98;;;16.67;;
23608;SDS011;11982;50.810;4.442;2023-03-01T02:38:03;29.98;;;16.83;;
23608;SDS011;11982;50.810;4.442;2023-03-01T02:40:33;34.25;;;17.40;;
23608;SDS011;11982;50.810;4.442;2023-03-01T02:43:00;32.15;;;17.38;;
23608;SDS011;11982;50.810;4.442;2023-03-01T02:45:29;31.38;;;17.05;;
23608;SDS011;11982;50.810;4.442;2023-03-01T02:47:55;29.92;;;16.10;;
23608;SDS011;11982;50.810;4.442;2023-03-01T02:55:29;32.90;;;16.85;;
23608;SDS011;11982;50.810;4.442;2023-03-01T02:57:55;26.95;;;16.55;;
23608;SDS011;11982;50.810;4.442;2023-03-01T03:00:26;32.65;;;16.88;;
23608;SDS011;11982;50.810;4.442;2023-03-01T03:02:58;28.50;;;16.00;;
23608;SDS011;11982;50.810;4.442;2023-03-01T03:05:27;32.30;;;17.88;;
23608;SDS011;11982;50.810;4.442;2023-03-01T03:07:54;29.80;;;17.17;;
23608;SDS011;11982;50.810;4.442;2023-03-01T03:10:28;31.05;;;17.30;;
23608;SDS011;11982;50.810;4.442;2023-03-01T03:12:57;35.58;;;17.42;;
23608;SDS011;11982;50.810;4.442;2023-03-01T03:15:24;27.90;;;16.55;;
23608;SDS011;11982;50.810;4.442;2023-03-01T03:17:52;28.85;;;16.80;;
23608;SDS011;11982;50.810;4.442;2023-03-01T03:20:20;29.50;;;16.85;;
23608;SDS011;11982;50.810;4.442;2023-03-01T03:22:49;32.53;;;17.73;;
23608;SDS011;11982;50.810;4.442;2023-03-01T03:25:17;33.25;;;17.85;;
23608;SDS011;11982;50.810;4.442;2023-03-01T03:27:44;32.65;;;18.00;;
23608;SDS011;11982;50.810;4.442;2023-03-01T03:30:12;28.80;;;17.15;;
23608;SDS011;11982;50.810;4.442;2023-03-01T03:32:41;32.50;;;17.63;;
23608;SDS011;11982;50.810;4.442;2023-03-01T03:35:21;31.36;;;18.06;;
23608;SDS011;11982;50.810;4.442;2023-03-01T03:37:50;32.33;;;17.73;;
23608;SDS011;11982;50.810;4.442;2023-03-01T03:40:36;29.50;;;16.77;;
23608;SDS011;11982;50.810;4.442;2023-03-01T03:43:04;32.70;;;17.63;;
23608;SDS011;11982;50.810;4.442;2023-03-01T03:45:32;34.75;;;18.17;;
23608;SDS011;11982;50.810;4.442;2023-03-01T03:47:58;35.58;;;18.35;;
23608;SDS011;11982;50.810;4.442;2023-03-01T03:50:25;32.50;;;17.52;;
23608;SDS011;11982;50.810;4.442;2023-03-01T03:52:51;31.20;;;17.08;;
23608;SDS011;11982;50.810;4.442;2023-03-01T03:55:16;33.50;;;18.05;;
23608;SDS011;11982;50.810;4.442;2023-03-01T03:57:44;31.08;;;17.73;;
23608;SDS011;11982;50.810;4.442;2023-03-01T04:00:20;31.42;;;17.67;;
23608;SDS011;11982;50.810;4.442;2023-03-01T04:02:49;34.53;;;17.63;;
23608;SDS011;11982;50.810;4.442;2023-03-01T04:05:16;30.45;;;17.17;;
23608;SDS011;11982;50.810;4.442;2023-03-01T04:07:43;34.53;;;18.55;;
23608;SDS011;11982;50.810;4.442;2023-03-01T04:10:16;33.13;;;18.02;;
23608;SDS011;11982;50.810;4.442;2023-03-01T04:12:43;31.05;;;16.85;;
23608;SDS011;11982;50.810;4.442;2023-03-01T04:15:09;32.45;;;16.80;;
23608;SDS011;11982;50.810;4.442;2023-03-01T04:17:42;30.75;;;17.40;;
23608;SDS011;11982;50.810;4.442;2023-03-01T04:20:13;30.42;;;17.45;;
23608;SDS011;11982;50.810;4.442;2023-03-01T04:22:49;29.33;;;16.63;;
23608;SDS011;11982;50.810;4.442;2023-03-01T04:25:16;27.45;;;17.10;;
23608;SDS011;11982;50.810;4.442;2023-03-01T04:27:42;27.13;;;15.50;;
23608;SDS011;11982;50.810;4.442;2023-03-01T04:30:08;31.98;;;17.60;;
23608;SDS011;11982;50.810;4.442;2023-03-01T04:32:34;34.03;;;18.17;;
23608;SDS011;11982;50.810;4.442;2023-03-01T04:35:00;31.10;;;17.77;;
23608;SDS011;11982;50.810;4.442;2023-03-01T04:37:26;34.85;;;18.08;;
23608;SDS011;11982;50.810;4.442;2023-03-01T04:39:52;31.40;;;17.67;;
23608;SDS011;11982;50.810;4.442;2023-03-01T04:42:18;31.35;;;17.70;;
23608;SDS011;11982;50.810;4.442;2023-03-01T04:44:44;35.28;;;17.75;;
23608;SDS011;11982;50.810;4.442;2023-03-01T04:47:10;29.80;;;17.05;;
23608;SDS011;11982;50.810;4.442;2023-03-01T04:49:37;35.50;;;18.58;;
23608;SDS011;11982;50.810;4.442;2023-03-01T04:52:02;34.00;;;18.20;;
23608;SDS011;11982;50.810;4.442;2023-03-01T04:54:29;29.42;;;18.25;;
23608;SDS011;11982;50.810;4.442;2023-03-01T04:56:55;34.63;;;18.20;;
23608;SDS011;11982;50.810;4.442;2023-03-01T04:59:21;29.30;;;17.70;;
23608;SDS011;11982;50.810;4.442;2023-03-01T05:01:48;28.77;;;16.52;;
23608;SDS011;11982;50.810;4.442;2023-03-01T05:04:14;31.92;;;18.40;;
23608;SDS011;11982;50.810;4.442;2023-03-01T05:06:40;30.67;;;17.00;;
23608;SDS011;11982;50.810;4.442;2023-03-01T05:09:05;35.60;;;18.25;;
23608;SDS011;11982;50.810;4.442;2023-03-01T05:11:31;35.00;;;18.58;;
23608;SDS011;11982;50.810;4.442;2023-03-01T05:14:01;31.85;;;17.38;;
23608;SDS011;11982;50.810;4.442;2023-03-01T05:16:27;34.22;;;17.17;;
23608;SDS011;11982;50.810;4.442;2023-03-01T05:18:55;33.67;;;18.00;;
23608;SDS011;11982;50.810;4.442;2023-03-01T05:21:22;32.60;;;17.33;;
23608;SDS011;11982;50.810;4.442;2023-03-01T05:23:48;32.38;;;18.35;;
23608;SDS011;11982;50.810;4.442;2023-03-01T05:26:14;34.28;;;17.92;;
23608;SDS011;11982;50.810;4.442;2023-03-01T05:28:42;32.65;;;16.77;;
23608;SDS011;11982;50.810;4.442;2023-03-01T05:31:11;29.58;;;17.30;;
23608;SDS011;11982;50.810;4.442;2023-03-01T05:33:37;34.80;;;17.27;;
23608;SDS011;11982;50.810;4.442;2023-03-01T05:36:03;35.97;;;18.23;;
23608;SDS011;11982;50.810;4.442;2023-03-01T05:38:30;36.58;;;17.35;;
23608;SDS011;11982;50.810;4.442;2023-03-01T05:40:56;38.00;;;17.90;;
23608;SDS011;11982;50.810;4.442;2023-03-01T05:43:21;34.33;;;17.33;;
23608;SDS011;11982;50.810;4.442;2023-03-01T05:45:47;39.80;;;18.52;;
23608;SDS011;11982;50.810;4.442;2023-03-01T05:48:13;34.63;;;17.38;;
23608;SDS011;11982;50.810;4.442;2023-03-01T05:50:40;32.78;;;17.15;;
23608;SDS011;11982;50.810;4.442;2023-03-01T05:53:09;35.30;;;18.48;;
23608;SDS011;11982;50.810;4.442;2023-03-01T05:55:36;35.35;;;18.92;;
23608;SDS011;11982;50.810;4.442;2023-03-01T05:58:04;30.65;;;17.55;;
23608;SDS011;11982;50.810;4.442;2023-03-01T06:00:31;39.55;;;17.77;;
23608;SDS011;11982;50.810;4.442;2023-03-01T06:02:58;32.50;;;18.23;;
23608;SDS011;11982;50.810;4.442;2023-03-01T06:05:25;36.30;;;18.52;;
23608;SDS011;11982;50.810;4.442;2023-03-01T06:07:51;30.75;;;17.90;;
23608;SDS011;11982;50.810;4.442;2023-03-01T06:10:18;31.17;;;17.23;;
23608;SDS011;11982;50.810;4.442;2023-03-01T06:12:45;33.95;;;17.83;;
23608;SDS011;11982;50.810;4.442;2023-03-01T06:15:12;35.03;;;18.35;;
23608;SDS011;11982;50.810;4.442;2023-03-01T06:17:40;32.60;;;16.45;;
23608;SDS011;11982;50.810;4.442;2023-03-01T06:20:11;32.45;;;16.77;;
23608;SDS011;11982;50.810;4.442;2023-03-01T06:22:45;37.40;;;19.30;;
23608;SDS011;11982;50.810;4.442;2023-03-01T06:25:13;34.10;;;17.42;;
23608;SDS011;11982;50.810;4.442;2023-03-01T06:27:40;35.03;;;18.10;;
23608;SDS011;11982;50.810;4.442;2023-03-01T06:30:06;32.55;;;18.20;;
23608;SDS011;11982;50.810;4.442;2023-03-01T06:32:34;35.20;;;17.42;;
23608;SDS011;11982;50.810;4.442;2023-03-01T06:35:00;34.50;;;17.70;;
23608;SDS011;11982;50.810;4.442;2023-03-01T06:37:26;34.92;;;18.95;;
23608;SDS011;11982;50.810;4.442;2023-03-01T06:39:51;33.22;;;18.77;;
23608;SDS011;11982;50.810;4.442;2023-03-01T06:42:17;31.13;;;17.33;;
23608;SDS011;11982;50.810;4.442;2023-03-01T06:44:43;32.95;;;18.23;;
23608;SDS011;11982;50.810;4.442;2023-03-01T06:47:09;31.73;;;17.27;;
23608;SDS011;11982;50.810;4.442;2023-03-01T06:49:35;31.05;;;17.77;;
23608;SDS011;11982;50.810;4.442;2023-03-01T06:52:00;35.42;;;20.45;;
23608;SDS011;11982;50.810;4.442;2023-03-01T06:54:26;32.55;;;19.48;;
23608;SDS011;11982;50.810;4.442;2023-03-01T06:56:52;33.00;;;17.88;;
23608;SDS011;11982;50.810;4.442;2023-03-01T06:59:17;33.53;;;18.13;;
23608;SDS011;11982;50.810;4.442;2023-03-01T07:01:43;32.38;;;17.65;;
23608;SDS011;11982;50.810;4.442;2023-03-01T07:04:09;36.55;;;18.70;;
23608;SDS011;11982;50.810;4.442;2023-03-01T07:06:36;34.10;;;18.80;;
23608;SDS011;11982;50.810;4.442;2023-03-01T07:09:02;37.05;;;16.88;;
23608;SDS011;11982;50.810;4.442;2023-03-01T07:11:27;34.70;;;16.85;;
23608;SDS011;11982;50.810;4.442;2023-03-01T07:13:53;35.83;;;17.00;;
23608;SDS011;11982;50.810;4.442;2023-03-01T07:18:51;36.42;;;17.85;;
23608;SDS011;11982;50.810;4.442;2023-03-01T07:21:17;38.90;;;18.65;;
23608;SDS011;11982;50.810;4.442;2023-03-01T07:23:42;33.15;;;17.85;;
23608;SDS011;11982;50.810;4.442;2023-03-01T07:26:08;35.45;;;18.83;;
23608;SDS011;11982;50.810;4.442;2023-03-01T07:28:34;34.45;;;17.42;;
23608;SDS011;11982;50.810;4.442;2023-03-01T07:31:03;32.38;;;17.60;;
23608;SDS011;11982;50.810;4.442;2023-03-01T07:33:29;34.75;;;18.45;;
23608;SDS011;11982;50.810;4.442;2023-03-01T07:35:55;33.03;;;16.42;;
23608;SDS011;11982;50.810;4.442;2023-03-01T07:38:22;34.42;;;17.25;;
23608;SDS011;11982;50.810;4.442;2023-03-01T07:40:48;33.47;;;18.20;;
23608;SDS011;11982;50.810;4.442;2023-03-01T07:43:14;30.35;;;17.70;;
23608;SDS011;11982;50.810;4.442;2023-03-01T07:45:40;31.20;;;17.63;;
23608;SDS011;11982;50.810;4.442;2023-03-01T07:48:05;31.48;;;17.85;;
23608;SDS011;11982;50.810;4.442;2023-03-01T07:50:31;31.27;;;17.55;;
23608;SDS011;11982;50.810;4.442;2023-03-01T07:52:56;37.38;;;17.95;;
23608;SDS011;11982;50.810;4.442;2023-03-01T07:55:22;32.72;;;17.70;;
23608;SDS011;11982;50.810;4.442;2023-03-01T07:57:48;33.83;;;18.08;;
23608;SDS011;11982;50.810;4.442;2023-03-01T08:00:13;32.03;;;17.23;;
23608;SDS011;11982;50.810;4.442;2023-03-01T08:02:40;31.77;;;16.77;;
23608;SDS011;11982;50.810;4.442;2023-03-01T08:05:07;31.38;;;16.77;;
23608;SDS011;11982;50.810;4.442;2023-03-01T08:07:34;33.88;;;17.05;;
23608;SDS011;11982;50.810;4.442;2023-03-01T08:09:59;27.63;;;16.77;;
23608;SDS011;11982;50.810;4.442;2023-03-01T08:12:25;33.53;;;16.70;;
23608;SDS011;11982;50.810;4.442;2023-03-01T08:14:52;27.25;;;17.13;;
23608;SDS011;11982;50.810;4.442;2023-03-01T08:17:18;28.77;;;17.50;;
23608;SDS011;11982;50.810;4.442;2023-03-01T08:19:44;26.80;;;16.08;;
23608;SDS011;11982;50.810;4.442;2023-03-01T08:22:12;32.25;;;16.73;;
23608;SDS011;11982;50.810;4.442;2023-03-01T08:24:38;34.42;;;17.80;;
23608;SDS011;11982;50.810;4.442;2023-03-01T08:27:04;34.53;;;17.00;;
23608;SDS011;11982;50.810;4.442;2023-03-01T08:29:33;28.80;;;16.73;;
23608;SDS011;11982;50.810;4.442;2023-03-01T08:31:59;32.22;;;16.35;;
23608;SDS011;11982;50.810;4.442;2023-03-01T08:34:25;31.80;;;17.48;;
23608;SDS011;11982;50.810;4.442;2023-03-01T08:36:51;30.77;;;17.98;;
23608;SDS011;11982;50.810;4.442;2023-03-01T08:39:17;30.08;;;16.33;;
23608;SDS011;11982;50.810;4.442;2023-03-01T08:47:05;30.65;;;16.98;;
23608;SDS011;11982;50.810;4.442;2023-03-01T08:49:31;29.05;;;16.30;;
23608;SDS011;11982;50.810;4.442;2023-03-01T08:51:58;35.17;;;17.95;;
23608;SDS011;11982;50.810;4.442;2023-03-01T08:54:23;31.98;;;17.38;;
23608;SDS011;11982;50.810;4.442;2023-03-01T08:56:49;30.58;;;17.25;;
23608;SDS011;11982;50.810;4.442;2023-03-01T08:59:16;41.05;;;16.33;;
23608;SDS011;11982;50.810;4.442;2023-03-01T09:01:44;29.80;;;16.17;;
23608;SDS011;11982;50.810;4.442;2023-03-01T09:04:10;30.13;;;17.08;;
23608;SDS011;11982;50.810;4.442;2023-03-01T09:06:36;31.55;;;16.40;;
23608;SDS011;11982;50.810;4.442;2023-03-01T09:09:03;35.20;;;18.58;;
23608;SDS011;11982;50.810;4.442;2023-03-01T09:11:30;36.45;;;17.30;;
23608;SDS011;11982;50.810;4.442;2023-03-01T09:13:56;32.25;;;18.20;;
23608;SDS011;11982;50.810;4.442;2023-03-01T09:16:22;31.45;;;16.33;;
23608;SDS011;11982;50.810;4.442;2023-03-01T09:18:49;29.70;;;16.27;;
23608;SDS011;11982;50.810;4.442;2023-03-01T09:21:20;28.38;;;16.13;;
23608;SDS011;11982;50.810;4.442;2023-03-01T09:23:48;32.72;;;18.00;;
23608;SDS011;11982;50.810;4.442;2023-03-01T09:26:15;30.98;;;17.67;;
23608;SDS011;11982;50.810;4.442;2023-03-01T09:28:45;34.53;;;18.65;;
23608;SDS011;11982;50.810;4.442;2023-03-01T09:31:13;31.25;;;17.83;;
23608;SDS011;11982;50.810;4.442;2023-03-01T09:33:40;31.02;;;16.15;;
23608;SDS011;11982;50.810;4.442;2023-03-01T09:36:11;33.35;;;18.23;;
23608;SDS011;11982;50.810;4.442;2023-03-01T09:38:38;32.88;;;17.75;;
23608;SDS011;11982;50.810;4.442;2023-03-01T09:41:38;31.23;;;17.67;;
23608;SDS011;11982;50.810;4.442;2023-03-01T09:46:29;33.55;;;17.85;;
23608;SDS011;11982;50.810;4.442;2023-03-01T09:49:06;36.60;;;18.75;;
23608;SDS011;11982;50.810;4.442;2023-03-01T09:51:54;31.15;;;17.05;;
23608;SDS011;11982;50.810;4.442;2023-03-01T09:54:39;37.20;;;19.08;;
23608;SDS011;11982;50.810;4.442;2023-03-01T09:57:06;32.83;;;17.23;;
23608;SDS011;11982;50.810;4.442;2023-03-01T10:02:57;30.23;;;16.40;;
23608;SDS011;11982;50.810;4.442;2023-03-01T10:10:39;36.88;;;18.20;;
23608;SDS011;11982;50.810;4.442;2023-03-01T10:16:01;31.05;;;17.83;;
23608;SDS011;11982;50.810;4.442;2023-03-01T10:18:52;31.85;;;18.02;;
23608;SDS011;11982;50.810;4.442;2023-03-01T10:21:23;35.38;;;18.85;;
23608;SDS011;11982;50.810;4.442;2023-03-01T10:23:59;33.03;;;17.73;;
23608;SDS011;11982;50.810;4.442;2023-03-01T10:29:22;32.25;;;16.58;;
23608;SDS011;11982;50.810;4.442;2023-03-01T10:31:51;28.13;;;16.42;;
23608;SDS011;11982;50.810;4.442;2023-03-01T10:36:49;30.30;;;16.83;;
23608;SDS011;11982;50.810;4.442;2023-03-01T10:39:25;29.52;;;15.30;;
23608;SDS011;11982;50.810;4.442;2023-03-01T10:41:56;30.13;;;18.30;;
23608;SDS011;11982;50.810;4.442;2023-03-01T10:52:24;30.13;;;17.02;;
23608;SDS011;11982;50.810;4.442;2023-03-01T10:55:02;34.35;;;17.05;;
23608;SDS011;11982;50.810;4.442;2023-03-01T10:57:38;31.58;;;18.05;;
23608;SDS011;11982;50.810;4.442;2023-03-01T11:02:50;55.50;;;30.35;;
23608;SDS011;11982;50.810;4.442;2023-03-01T11:05:37;32.80;;;19.40;;
23608;SDS011;11982;50.810;4.442;2023-03-01T11:08:29;30.35;;;16.58;;
23608;SDS011;11982;50.810;4.442;2023-03-01T11:11:03;29.52;;;17.95;;
23608;SDS011;11982;50.810;4.442;2023-03-01T11:28:03;32.33;;;18.90;;
23608;SDS011;11982;50.810;4.442;2023-03-01T11:30:41;27.67;;;15.95;;
23608;SDS011;11982;50.810;4.442;2023-03-01T11:33:34;35.08;;;17.52;;
23608;SDS011;11982;50.810;4.442;2023-03-01T11:38:55;28.10;;;16.67;;
23608;SDS011;11982;50.810;4.442;2023-03-01T11:41:31;25.02;;;16.10;;
23608;SDS011;11982;50.810;4.442;2023-03-01T11:44:02;31.73;;;16.75;;
23608;SDS011;11982;50.810;4.442;2023-03-01T11:46:38;32.33;;;17.33;;
23608;SDS011;11982;50.810;4.442;2023-03-01T11:51:47;25.80;;;15.82;;
23608;SDS011;11982;50.810;4.442;2023-03-01T12:21:51;26.13;;;14.85;;
23608;SDS011;11982;50.810;4.442;2023-03-01T12:29:47;23.35;;;13.75;;
23608;SDS011;11982;50.810;4.442;2023-03-01T12:35:22;22.90;;;12.77;;
23608;SDS011;11982;50.810;4.442;2023-03-01T12:40:49;19.45;;;12.30;;
23608;SDS011;11982;50.810;4.442;2023-03-01T12:43:50;22.40;;;13.45;;
23608;SDS011;11982;50.810;4.442;2023-03-01T12:46:42;21.63;;;12.43;;
23608;SDS011;11982;50.810;4.442;2023-03-01T12:49:15;21.83;;;13.15;;
23608;SDS011;11982;50.810;4.442;2023-03-01T12:51:49;24.33;;;13.25;;
23608;SDS011;11982;50.810;4.442;2023-03-01T12:54:26;24.30;;;12.50;;
23608;SDS011;11982;50.810;4.442;2023-03-01T12:56:53;23.83;;;12.70;;
23608;SDS011;11982;50.810;4.442;2023-03-01T13:02:14;28.33;;;14.30;;
23608;SDS011;11982;50.810;4.442;2023-03-01T13:10:43;22.75;;;12.55;;
23608;SDS011;11982;50.810;4.442;2023-03-01T13:13:19;20.15;;;12.18;;
23608;SDS011;11982;50.810;4.442;2023-03-01T13:15:49;22.48;;;11.93;;
23608;SDS011;11982;50.810;4.442;2023-03-01T13:30:59;21.42;;;12.07;;
23608;SDS011;11982;50.810;4.442;2023-03-01T13:35:51;21.50;;;12.40;;
23608;SDS011;11982;50.810;4.442;2023-03-01T13:41:15;20.63;;;12.88;;
23608;SDS011;11982;50.810;4.442;2023-03-01T13:44:01;23.50;;;12.65;;
23608;SDS011;11982;50.810;4.442;2023-03-01T13:46:36;21.80;;;14.60;;
23608;SDS011;11982;50.810;4.442;2023-03-01T13:49:03;25.58;;;12.60;;
23608;SDS011;11982;50.810;4.442;2023-03-01T13:51:28;25.08;;;13.32;;
23608;SDS011;11982;50.810;4.442;2023-03-01T13:53:55;22.65;;;12.32;;
23608;SDS011;11982;50.810;4.442;2023-03-01T13:56:27;19.23;;;12.10;;
23608;SDS011;11982;50.810;4.442;2023-03-01T13:58:59;24.67;;;13.15;;
23608;SDS011;11982;50.810;4.442;2023-03-01T14:01:32;23.20;;;13.82;;
23608;SDS011;11982;50.810;4.442;2023-03-01T14:03:59;25.45;;;12.95;;
23608;SDS011;11982;50.810;4.442;2023-03-01T14:06:32;21.08;;;12.65;;
23608;SDS011;11982;50.810;4.442;2023-03-01T14:09:05;22.80;;;13.15;;
23608;SDS011;11982;50.810;4.442;2023-03-01T14:17:07;22.50;;;12.55;;
23608;SDS011;11982;50.810;4.442;2023-03-01T14:20:00;25.70;;;13.35;;
23608;SDS011;11982;50.810;4.442;2023-03-01T14:22:34;23.83;;;13.38;;
23608;SDS011;11982;50.810;4.442;2023-03-01T14:25:01;20.10;;;12.15;;
23608;SDS011;11982;50.810;4.442;2023-03-01T14:27:33;21.48;;;13.30;;
23608;SDS011;11982;50.810;4.442;2023-03-01T14:30:10;21.45;;;12.65;;
23608;SDS011;11982;50.810;4.442;2023-03-01T14:32:39;23.38;;;13.15;;
23608;SDS011;11982;50.810;4.442;2023-03-01T14:35:19;20.33;;;12.13;;
23608;SDS011;11982;50.810;4.442;2023-03-01T14:37:47;19.67;;;12.40;;
23608;SDS011;11982;50.810;4.442;2023-03-01T14:40:36;25.58;;;15.50;;
23608;SDS011;11982;50.810;4.442;2023-03-01T14:43:08;21.00;;;11.75;;
23608;SDS011;11982;50.810;4.442;2023-03-01T14:45:48;22.70;;;12.48;;
23608;SDS011;11982;50.810;4.442;2023-03-01T14:48:15;20.40;;;13.00;;
23608;SDS011;11982;50.810;4.442;2023-03-01T14:50:41;20.00;;;11.48;;
23608;SDS011;11982;50.810;4.442;2023-03-01T14:53:15;22.23;;;12.27;;
23608;SDS011;11982;50.810;4.442;2023-03-01T14:55:44;21.75;;;11.82;;
23608;SDS011;11982;50.810;4.442;2023-03-01T14:58:14;23.60;;;12.02;;
23608;SDS011;11982;50.810;4.442;2023-03-01T15:00:47;39.05;;;23.25;;
23608;SDS011;11982;50.810;4.442;2023-03-01T15:03:25;22.70;;;11.88;;
23608;SDS011;11982;50.810;4.442;2023-03-01T15:06:02;26.27;;;14.90;;
23608;SDS011;11982;50.810;4.442;2023-03-01T15:08:29;19.58;;;12.27;;
23608;SDS011;11982;50.810;4.442;2023-03-01T15:13:42;26.08;;;13.73;;
23608;SDS011;11982;50.810;4.442;2023-03-01T15:16:11;19.17;;;12.50;;
23608;SDS011;11982;50.810;4.442;2023-03-01T15:18:50;20.35;;;12.65;;
23608;SDS011;11982;50.810;4.442;2023-03-01T15:21:25;18.63;;;12.30;;
23608;SDS011;11982;50.810;4.442;2023-03-01T15:24:39;21.13;;;10.95;;
23608;SDS011;11982;50.810;4.442;2023-03-01T15:26:55;22.15;;;13.13;;
23608;SDS011;11982;50.810;4.442;2023-03-01T15:29:26;17.73;;;11.05;;
23608;SDS011;11982;50.810;4.442;2023-03-01T15:34:41;23.60;;;11.60;;
23608;SDS011;11982;50.810;4.442;2023-03-01T15:37:35;21.25;;;13.55;;
23608;SDS011;11982;50.810;4.442;2023-03-01T15:40:23;18.25;;;11.57;;
23608;SDS011;11982;50.810;4.442;2023-03-01T15:43:05;20.15;;;12.00;;
23608;SDS011;11982;50.810;4.442;2023-03-01T15:45:32;22.58;;;11.68;;
23608;SDS011;11982;50.810;4.442;2023-03-01T15:48:05;21.95;;;12.07;;
23608;SDS011;11982;50.810;4.442;2023-03-01T15:50:40;18.23;;;11.30;;
23608;SDS011;11982;50.810;4.442;2023-03-01T15:53:12;20.98;;;12.35;;
23608;SDS011;11982;50.810;4.442;2023-03-01T15:55:41;21.52;;;11.82;;
23608;SDS011;11982;50.810;4.442;2023-03-01T15:58:14;23.10;;;11.90;;
23608;SDS011;11982;50.810;4.442;2023-03-01T16:00:45;21.05;;;11.90;;
23608;SDS011;11982;50.810;4.442;2023-03-01T16:03:13;20.50;;;11.70;;
23608;SDS011;11982;50.810;4.442;2023-03-01T16:05:46;19.83;;;10.85;;
23608;SDS011;11982;50.810;4.442;2023-03-01T16:08:13;22.30;;;11.63;;
23608;SDS011;11982;50.810;4.442;2023-03-01T16:10:40;20.02;;;12.20;;
23608;SDS011;11982;50.810;4.442;2023-03-01T16:13:08;15.93;;;10.43;;
23608;SDS011;11982;50.810;4.442;2023-03-01T16:15:38;21.75;;;10.70;;
23608;SDS011;11982;50.810;4.442;2023-03-01T16:18:04;17.77;;;10.90;;
23608;SDS011;11982;50.810;4.442;2023-03-01T16:20:31;18.23;;;9.55;;
23608;SDS011;11982;50.810;4.442;2023-03-01T16:22:58;19.35;;;10.55;;
23608;SDS011;11982;50.810;4.442;2023-03-01T16:25:27;20.05;;;10.65;;
23608;SDS011;11982;50.810;4.442;2023-03-01T16:27:53;23.48;;;11.32;;
23608;SDS011;11982;50.810;4.442;2023-03-01T16:30:21;17.48;;;9.85;;
23608;SDS011;11982;50.810;4.442;2023-03-01T16:32:48;19.15;;;11.32;;
23608;SDS011;11982;50.810;4.442;2023-03-01T16:35:16;17.45;;;10.50;;
23608;SDS011;11982;50.810;4.442;2023-03-01T16:37:44;18.40;;;10.07;;
23608;SDS011;11982;50.810;4.442;2023-03-01T16:40:15;20.25;;;10.52;;
23608;SDS011;11982;50.810;4.442;2023-03-01T16:42:49;17.75;;;9.98;;
23608;SDS011;11982;50.810;4.442;2023-03-01T16:45:16;16.95;;;10.00;;
23608;SDS011;11982;50.810;4.442;2023-03-01T16:47:42;17.05;;;9.63;;
23608;SDS011;11982;50.810;4.442;2023-03-01T16:50:09;15.00;;;9.25;;
23608;SDS011;11982;50.810;4.442;2023-03-01T16:52:35;22.20;;;10.82;;
23608;SDS011;11982;50.810;4.442;2023-03-01T16:55:04;16.35;;;10.60;;
23608;SDS011;11982;50.810;4.442;2023-03-01T16:57:33;17.67;;;10.88;;
23608;SDS011;11982;50.810;4.442;2023-03-01T16:59:59;19.75;;;10.43;;
23608;SDS011;11982;50.810;4.442;2023-03-01T17:02:25;17.83;;;10.60;;